createdAt,value
2023-03-31T00:01:11.209Z,99979.31
2023-03-31T00:03:43.759Z,99978.44
2023-03-31T00:06:17.992Z,99981.09
2023-03-31T00:08:51.287Z,99975.88
2023-03-31T00:11:20.753Z,99970.63
2023-03-31T00:13:49.625Z,99972.31
2023-03-31T00:16:18.266Z,99965.38
2023-03-31T00:18:50.854Z,99967.06
2023-03-31T00:21:33.696Z,99959.19
2023-03-31T00:24:04.370Z,99953.03
2023-03-31T00:26:33.518Z,99951.16
2023-03-31T00:29:02.388Z,99944.94
2023-03-31T00:31:31.207Z,99946.63
2023-03-31T00:34:00.927Z,99940.44
2023-03-31T00:36:29.514Z,99930.69
2023-03-31T00:39:00.715Z,99927.97
2023-03-31T00:41:30.252Z,99918.19
2023-03-31T00:44:08.400Z,99913.81
2023-03-31T00:46:44.877Z,99912.88
2023-03-31T00:49:22.889Z,99908.41
2023-03-31T00:51:53.914Z,99905.78
2023-03-31T00:54:25.950Z,99905.72
2023-03-31T00:56:58.254Z,99897.78
2023-03-31T00:59:31.914Z,99889.88
2023-03-31T01:02:02.727Z,99888.09
2023-03-31T01:04:36.893Z,99881.06
2023-03-31T01:07:12.440Z,99881.88
2023-03-31T01:09:42.074Z,99872.91
2023-03-31T01:12:11.680Z,99877.06
2023-03-31T01:14:40.322Z,99874.22
2023-03-31T01:17:09.680Z,99869.69
2023-03-31T01:19:54.532Z,99850.38
2023-03-31T01:22:59.486Z,99842.38
2023-03-31T01:26:13.803Z,99843.31
2023-03-31T01:28:48.115Z,99844.25
2023-03-31T01:31:56.391Z,99842.66
2023-03-31T01:35:36.809Z,99834.16
2023-03-31T01:38:55.107Z,99825.47
2023-03-31T01:41:45.874Z,99828.94
2023-03-31T01:44:25.035Z,99825.47
2023-03-31T01:46:59.184Z,99820.06
2023-03-31T01:49:40.334Z,99815.66
2023-03-31T01:52:18.432Z,99812.97
2023-03-31T01:54:52.059Z,99809.41
2023-03-31T01:57:28.100Z,99802.31
2023-03-31T02:00:05.819Z,99801.41
2023-03-31T02:02:47.525Z,99802.94
2023-03-31T02:05:21.379Z,99794.97
2023-03-31T02:07:55.812Z,99789.56
2023-03-31T02:10:28.405Z,99781.53
2023-03-31T02:13:02.958Z,99769.13
2023-03-31T02:15:38.153Z,99775.19
2023-03-31T02:18:12.186Z,99772.31
2023-03-31T02:20:46.160Z,99771.34
2023-03-31T02:23:17.797Z,99761.59
2023-03-31T02:25:51.670Z,99758.97
2023-03-31T02:28:24.510Z,99757.44
2023-03-31T02:31:06.593Z,99748.94
2023-03-31T02:33:35.606Z,99748.38
2023-03-31T02:36:06.072Z,99741.72
2023-03-31T02:38:40.632Z,99732.34
2023-03-31T02:41:11.147Z,99746.31
2023-03-31T02:43:41.047Z,99747.88
2023-03-31T02:46:09.866Z,99746.88
2023-03-31T02:48:41.322Z,99730.13
2023-03-31T02:52:06.410Z,99718.69
2023-03-31T02:55:20.343Z,99710.81
2023-03-31T02:58:23.800Z,99686.22
2023-03-31T03:01:14.579Z,99680.97
2023-03-31T03:03:58.963Z,99662.47
2023-03-31T03:06:43.508Z,99666.88
2023-03-31T03:09:36.951Z,99652.97
2023-03-31T03:12:14.959Z,99647.81
2023-03-31T03:14:52.333Z,99647.81
2023-03-31T03:17:27.049Z,99642.56
2023-03-31T03:19:57.787Z,99631.19
2023-03-31T03:22:26.221Z,99634.69
2023-03-31T03:24:55.397Z,99619.84
2023-03-31T03:27:23.965Z,99623.31
2023-03-31T03:29:52.946Z,99610.16
2023-03-31T03:32:22.514Z,99590.91
2023-03-31T03:34:51.019Z,99587.44
2023-03-31T03:37:19.570Z,99588.44
2023-03-31T03:39:47.816Z,99570.97
2023-03-31T03:42:16.748Z,99572.91
2023-03-31T03:44:45.374Z,99562.44
2023-03-31T03:47:13.907Z,99563.28
2023-03-31T03:49:43.457Z,99547.53
2023-03-31T03:52:11.974Z,99535.22
2023-03-31T03:54:40.129Z,99520.38
2023-03-31T03:57:08.792Z,99524.81
2023-03-31T03:59:37.036Z,99521.31
2023-03-31T04:02:05.598Z,99507.34
2023-03-31T04:04:34.158Z,99514.34
2023-03-31T04:07:03.938Z,99520.53
2023-03-31T04:09:32.391Z,99524.09
2023-03-31T04:12:00.952Z,99514.44
2023-03-31T04:14:29.549Z,99527.63
2023-03-31T04:16:58.631Z,99527.63
2023-03-31T04:19:27.432Z,99515.44
2023-03-31T04:22:02.925Z,99505.91
2023-03-31T04:24:33.138Z,99492.72
2023-03-31T04:27:02.961Z,99489.16
2023-03-31T04:29:33.634Z,99483.84
2023-03-31T04:32:04.134Z,99470.53
2023-03-31T04:34:36.034Z,99466.97
2023-03-31T04:37:05.275Z,99464.25
2023-03-31T04:39:34.804Z,99469.50
2023-03-31T04:42:03.424Z,99477.38
2023-03-31T04:44:32.014Z,99475.84
2023-03-31T04:47:03.062Z,99479.78
2023-03-31T04:49:33.557Z,99485.78
2023-03-31T04:52:02.404Z,99475.47
2023-03-31T04:54:30.701Z,99468.38
2023-03-31T04:57:00.353Z,99467.25
2023-03-31T04:59:28.891Z,99458.19
2023-03-31T05:01:57.078Z,99469.09
2023-03-31T05:04:25.770Z,99469.50
2023-03-31T05:06:54.330Z,99473.34
2023-03-31T05:09:22.926Z,99467.56
2023-03-31T05:11:51.808Z,99465.22
2023-03-31T05:14:21.861Z,99454.97
2023-03-31T05:16:50.569Z,99449.91
2023-03-31T05:19:19.260Z,99449.97
2023-03-31T05:21:47.730Z,99453.50
2023-03-31T05:24:16.008Z,99443.91
2023-03-31T05:26:48.417Z,99444.78
2023-03-31T05:29:17.550Z,99441.53
2023-03-31T05:31:47.688Z,99422.66
2023-03-31T05:34:16.939Z,99426.56
2023-03-31T05:36:45.718Z,99418.09
2023-03-31T05:39:14.577Z,99416.66
2023-03-31T05:41:43.109Z,99411.63
2023-03-31T05:44:11.759Z,99389.16
2023-03-31T05:46:41.266Z,99389.25
2023-03-31T05:49:11.401Z,99378.91
2023-03-31T05:51:39.930Z,99389.53
2023-03-31T05:54:08.794Z,99373.81
2023-03-31T05:56:37.338Z,99372.09
2023-03-31T05:59:06.272Z,99377.31
2023-03-31T06:01:34.858Z,99377.31
2023-03-31T06:04:03.589Z,99365.16
2023-03-31T06:06:37.093Z,99349.56
2023-03-31T06:09:06.731Z,99330.44
2023-03-31T06:11:34.927Z,99309.59
2023-03-31T06:14:03.458Z,99290.50
2023-03-31T06:16:31.753Z,99281.00
2023-03-31T06:19:00.328Z,99295.94
2023-03-31T06:21:28.814Z,99302.09
2023-03-31T06:24:00.278Z,99282.94
2023-03-31T06:26:29.040Z,99272.38
2023-03-31T06:28:57.208Z,99273.22
2023-03-31T06:31:26.856Z,99256.66
2023-03-31T06:33:55.696Z,99245.31
2023-03-31T06:36:24.424Z,99247.00
2023-03-31T06:38:53.009Z,99247.00
2023-03-31T06:41:22.949Z,99253.09
2023-03-31T06:43:51.702Z,99258.34
2023-03-31T06:46:20.563Z,99271.38
2023-03-31T06:48:49.118Z,99251.28
2023-03-31T06:51:17.653Z,99246.81
2023-03-31T06:53:46.179Z,99251.06
2023-03-31T06:56:14.711Z,99243.78
2023-03-31T06:58:44.284Z,99249.72
2023-03-31T07:01:12.838Z,99249.44
2023-03-31T07:03:41.438Z,99243.09
2023-03-31T07:06:10.068Z,99241.84
2023-03-31T07:08:38.296Z,99253.72
2023-03-31T07:11:07.179Z,99239.28
2023-03-31T07:13:35.795Z,99245.00
2023-03-31T07:16:07.252Z,99259.69
2023-03-31T07:18:36.600Z,99242.84
2023-03-31T07:21:09.635Z,99248.09
2023-03-31T07:23:38.678Z,99243.94
2023-03-31T07:26:07.396Z,99260.72
2023-03-31T07:28:36.021Z,99262.59
2023-03-31T07:31:13.324Z,99273.97
2023-03-31T07:33:42.232Z,99294.19
2023-03-31T07:36:13.755Z,99330.91
2023-03-31T07:38:45.689Z,99312.69
2023-03-31T07:41:15.598Z,99322.53
2023-03-31T07:43:44.282Z,99295.81
2023-03-31T07:46:20.418Z,99290.72
2023-03-31T07:48:49.173Z,99292.56
2023-03-31T07:51:20.531Z,99272.78
2023-03-31T07:53:52.099Z,99268.63
2023-03-31T07:56:21.768Z,99286.97
2023-03-31T07:58:51.141Z,99284.34
2023-03-31T08:01:25.770Z,99276.25
2023-03-31T08:03:54.515Z,99271.16
2023-03-31T08:06:26.369Z,99267.63
2023-03-31T08:08:55.042Z,99278.81
2023-03-31T08:11:24.283Z,99273.44
2023-03-31T08:13:53.256Z,99265.47
2023-03-31T08:16:22.971Z,99273.28
2023-03-31T08:18:51.558Z,99266.34
2023-03-31T08:21:22.246Z,99261.13
2023-03-31T08:23:55.828Z,99271.59
2023-03-31T08:26:25.552Z,99265.34
2023-03-31T08:28:54.312Z,99274.91
2023-03-31T08:31:27.470Z,99278.25
2023-03-31T08:33:57.257Z,99260.69
2023-03-31T08:36:27.126Z,99264.94
2023-03-31T08:38:56.147Z,99257.00
2023-03-31T08:41:43.810Z,99258.91
2023-03-31T08:44:22.734Z,99249.63
2023-03-31T08:46:55.916Z,99245.38
2023-03-31T08:49:26.729Z,99256.72
2023-03-31T08:52:00.330Z,99256.72
2023-03-31T08:54:34.452Z,99257.22
2023-03-31T08:57:04.937Z,99243.34
2023-03-31T08:59:35.531Z,99234.75
2023-03-31T09:02:18.712Z,99225.63
2023-03-31T09:05:53.105Z,99243.09
2023-03-31T09:08:38.046Z,99230.56
2023-03-31T09:11:20.227Z,99233.53
2023-03-31T09:14:27.892Z,99233.00
2023-03-31T09:17:14.098Z,99240.88
2023-03-31T09:19:48.077Z,99242.94
2023-03-31T09:22:21.238Z,99239.78
2023-03-31T09:24:57.105Z,99260.03
2023-03-31T09:27:28.741Z,99251.13
2023-03-31T09:30:02.497Z,99253.69
2023-03-31T09:32:33.656Z,99287.88
2023-03-31T09:35:15.286Z,99274.59
2023-03-31T09:37:43.858Z,99266.50
2023-03-31T09:40:19.964Z,99315.31
2023-03-31T09:42:55.170Z,99277.63
2023-03-31T09:45:23.797Z,99254.53
2023-03-31T09:47:56.306Z,99255.44
2023-03-31T09:50:26.587Z,99297.13
2023-03-31T09:52:58.987Z,99226.34
2023-03-31T09:55:40.397Z,99241.56
2023-03-31T09:58:13.624Z,99215.53
2023-03-31T10:00:43.721Z,99219.81
2023-03-31T10:03:15.182Z,99201.13
2023-03-31T10:05:52.374Z,99187.47
2023-03-31T10:08:26.263Z,99192.81
2023-03-31T10:10:56.885Z,99194.66
2023-03-31T10:13:29.209Z,99192.94
2023-03-31T10:16:06.460Z,99186.78
2023-03-31T10:18:38.838Z,99168.31
2023-03-31T10:21:16.775Z,99172.06
2023-03-31T10:23:48.992Z,99164.28
2023-03-31T10:26:21.710Z,99167.28
2023-03-31T10:28:53.031Z,99171.44
2023-03-31T10:31:25.799Z,99162.75
2023-03-31T10:33:56.108Z,99159.16
2023-03-31T10:36:28.284Z,99153.84
2023-03-31T10:38:57.867Z,99156.47
2023-03-31T10:41:29.391Z,99145.59
2023-03-31T10:43:59.281Z,99132.69
2023-03-31T10:46:44.004Z,99158.66
2023-03-31T10:49:27.059Z,99148.25
2023-03-31T10:51:57.832Z,99150.38
2023-03-31T10:54:26.656Z,99142.72
2023-03-31T10:56:58.797Z,99167.28
2023-03-31T10:59:44.665Z,99151.69
2023-03-31T11:02:42.367Z,99138.59
2023-03-31T11:05:22.374Z,99141.06
2023-03-31T11:08:11.665Z,99139.59
2023-03-31T11:10:58.688Z,99147.13
2023-03-31T11:13:37.287Z,99132.84
2023-03-31T11:16:19.649Z,99137.75
2023-03-31T11:19:05.427Z,99122.38
2023-03-31T11:21:47.283Z,99127.38
2023-03-31T11:24:32.857Z,99134.03
2023-03-31T11:27:19.031Z,99127.66
2023-03-31T11:29:55.396Z,99116.56
2023-03-31T11:32:54.803Z,99121.16
2023-03-31T11:35:48.026Z,99108.47
2023-03-31T11:38:35.743Z,99115.81
2023-03-31T11:41:08.003Z,99109.44
2023-03-31T11:43:43.298Z,99114.81
2023-03-31T11:46:16.317Z,99094.63
2023-03-31T11:48:55.167Z,99117.69
2023-03-31T11:51:28.590Z,99113.72
2023-03-31T11:54:04.114Z,99109.38
2023-03-31T11:56:39.742Z,99120.28
2023-03-31T11:59:13.557Z,99116.13
2023-03-31T12:01:48.419Z,99106.63
2023-03-31T12:04:25.830Z,99091.72
2023-03-31T12:07:00.731Z,99088.91
2023-03-31T12:09:44.343Z,99081.47
2023-03-31T12:12:20.902Z,99078.75
2023-03-31T12:14:55.568Z,99089.66
2023-03-31T12:17:29.324Z,99069.66
2023-03-31T12:20:02.166Z,99075.72
2023-03-31T12:22:35.092Z,99064.66
2023-03-31T12:25:06.399Z,99072.50
2023-03-31T12:27:41.695Z,99079.03
2023-03-31T12:30:15.885Z,99067.59
2023-03-31T12:32:49.132Z,99053.41
2023-03-31T12:35:23.719Z,99043.69
2023-03-31T12:38:24.117Z,99066.97
2023-03-31T12:41:07.528Z,99040.41
2023-03-31T12:43:58.876Z,99045.00
2023-03-31T12:46:59.201Z,99107.31
2023-03-31T12:49:58.466Z,99058.06
2023-03-31T12:52:37.329Z,99044.47
2023-03-31T12:55:34.874Z,99054.72
2023-03-31T12:58:44.147Z,99027.66
2023-03-31T13:01:16.642Z,99051.09
2023-03-31T13:03:55.202Z,99057.03
2023-03-31T13:06:55.663Z,99076.91
2023-03-31T13:09:52.111Z,99059.59
2023-03-31T13:12:25.539Z,99056.00
2023-03-31T13:14:59.996Z,99041.75
2023-03-31T13:17:35.621Z,99046.94
2023-03-31T13:20:38.197Z,99039.53
2023-03-31T13:23:20.251Z,99046.25
2023-03-31T13:25:51.605Z,99048.63
2023-03-31T13:28:42.234Z,99062.19
2023-03-31T13:31:14.022Z,99055.84
2023-03-31T13:33:48.225Z,99081.03
2023-03-31T13:36:48.423Z,99071.13
2023-03-31T13:40:01.895Z,99068.25
2023-03-31T13:43:09.384Z,99067.63
2023-03-31T13:45:58.281Z,99047.81
2023-03-31T13:48:43.903Z,99029.34
2023-03-31T13:51:30.818Z,99045.31
2023-03-31T13:54:20.604Z,99040.41
2023-03-31T13:57:14.968Z,99026.91
2023-03-31T14:00:12.599Z,99047.50
2023-03-31T14:02:59.701Z,99039.81
2023-03-31T14:05:34.802Z,99034.06
2023-03-31T14:08:11.932Z,99015.38
2023-03-31T14:10:42.935Z,99017.06
2023-03-31T14:13:17.030Z,99001.22
2023-03-31T14:15:50.542Z,98983.13
2023-03-31T14:18:26.690Z,98980.78
2023-03-31T14:21:17.696Z,98998.25
2023-03-31T14:23:58.792Z,99007.00
2023-03-31T14:26:48.909Z,99016.91
2023-03-31T14:29:25.527Z,98996.16
2023-03-31T14:32:04.203Z,98993.97
2023-03-31T14:34:59.858Z,98990.09
2023-03-31T14:37:30.852Z,98991.69
2023-03-31T14:40:00.229Z,98985.56
2023-03-31T14:42:38.009Z,98984.78
2023-03-31T14:45:17.023Z,98984.16
2023-03-31T14:47:56.789Z,98986.19
2023-03-31T14:50:32.592Z,98988.94
2023-03-31T14:53:02.390Z,98975.84
2023-03-31T14:55:54.403Z,99025.56
2023-03-31T14:58:28.467Z,99116.66
2023-03-31T15:00:57.053Z,99135.88
2023-03-31T15:03:27.631Z,99083.69
2023-03-31T15:06:00.518Z,99104.16
2023-03-31T15:08:32.371Z,99087.19
2023-03-31T15:11:12.936Z,99042.66
2023-03-31T15:13:56.602Z,99045.63
2023-03-31T15:16:42.300Z,99032.53
2023-03-31T15:19:16.937Z,99014.00
2023-03-31T15:21:46.983Z,99019.38
2023-03-31T15:24:16.948Z,99020.03
2023-03-31T15:26:51.323Z,99021.16
2023-03-31T15:29:24.727Z,99021.00
2023-03-31T15:31:57.106Z,99021.03
2023-03-31T15:34:31.049Z,99020.91
2023-03-31T15:37:00.014Z,99024.53
2023-03-31T15:39:32.994Z,99032.75
2023-03-31T15:42:04.436Z,99035.06
2023-03-31T15:44:40.168Z,99033.66
2023-03-31T15:47:17.206Z,99027.00
2023-03-31T15:49:55.352Z,99027.34
2023-03-31T15:52:33.117Z,99031.88
2023-03-31T15:55:23.242Z,99022.50
2023-03-31T15:57:52.744Z,99019.13
2023-03-31T16:00:45.395Z,99017.59
2023-03-31T16:03:19.173Z,99008.28
2023-03-31T16:05:55.876Z,99010.47
2023-03-31T16:08:29.578Z,99010.19
2023-03-31T16:11:04.424Z,99002.84
2023-03-31T16:13:33.710Z,99003.53
2023-03-31T16:16:02.495Z,99014.91
2023-03-31T16:18:35.869Z,99011.34
2023-03-31T16:21:08.648Z,99010.31
2023-03-31T16:23:41.732Z,99008.53
2023-03-31T16:26:11.686Z,99008.59
2023-03-31T16:28:40.222Z,99002.50
2023-03-31T16:31:35.097Z,99001.00
2023-03-31T16:34:05.709Z,99004.56
2023-03-31T16:36:34.008Z,99002.84
2023-03-31T16:39:04.952Z,98999.50
2023-03-31T16:41:34.611Z,99003.97
2023-03-31T16:44:03.265Z,99017.13
2023-03-31T16:46:32.957Z,99005.75
2023-03-31T16:49:01.356Z,99002.19
2023-03-31T16:51:29.700Z,99000.41
2023-03-31T16:53:59.405Z,99003.03
2023-03-31T16:56:28.185Z,99008.28
2023-03-31T16:58:57.291Z,99015.25
2023-03-31T17:01:25.614Z,99012.63
2023-03-31T17:03:55.372Z,99018.63
2023-03-31T17:06:23.997Z,99016.75
2023-03-31T17:08:52.516Z,99018.44
2023-03-31T17:11:21.497Z,99022.69
2023-03-31T17:13:50.134Z,99031.41
2023-03-31T17:16:29.118Z,99026.94
2023-03-31T17:19:05.925Z,99026.81
2023-03-31T17:21:34.482Z,99026.75
2023-03-31T17:24:03.389Z,99038.03
2023-03-31T17:26:32.101Z,99037.09
2023-03-31T17:29:01.253Z,99035.22
2023-03-31T17:31:30.516Z,99027.25
2023-03-31T17:33:59.536Z,99034.88
2023-03-31T17:36:29.615Z,99034.69
2023-03-31T17:39:00.109Z,99045.94
2023-03-31T17:41:30.306Z,99031.91
2023-03-31T17:43:58.976Z,99031.91
2023-03-31T17:46:27.781Z,99045.88
2023-03-31T17:48:58.388Z,99053.84
2023-03-31T17:51:28.953Z,99043.31
2023-03-31T17:53:58.210Z,99057.41
2023-03-31T17:56:28.700Z,99059.97
2023-03-31T17:58:57.654Z,99057.53
2023-03-31T18:01:26.310Z,99063.63
2023-03-31T18:03:56.357Z,99070.31
2023-03-31T18:06:24.997Z,99075.47
2023-03-31T18:08:56.177Z,99078.94
2023-03-31T18:11:24.589Z,99084.28
2023-03-31T18:13:52.946Z,99083.53
2023-03-31T18:16:21.878Z,99084.66
2023-03-31T18:18:50.862Z,99097.97
2023-03-31T18:21:19.481Z,99092.94
2023-03-31T18:23:52.516Z,99097.53
2023-03-31T18:26:24.442Z,99096.88
2023-03-31T18:28:52.896Z,99088.31
2023-03-31T18:31:22.441Z,99093.56
2023-03-31T18:33:52.196Z,99098.81
2023-03-31T18:36:32.559Z,99074.41
2023-03-31T18:39:04.039Z,99082.47
2023-03-31T18:41:33.733Z,99100.91
2023-03-31T18:44:02.196Z,99101.00
2023-03-31T18:46:30.991Z,99094.06
2023-03-31T18:48:59.194Z,99088.81
2023-03-31T18:51:27.796Z,99091.44
2023-03-31T18:53:56.320Z,99088.81
2023-03-31T18:56:25.343Z,99096.78
2023-03-31T18:58:54.927Z,99087.09
2023-03-31T19:01:24.191Z,99102.88
2023-03-31T19:03:52.709Z,99084.31
2023-03-31T19:06:22.437Z,99092.19
2023-03-31T19:08:51.903Z,99104.41
2023-03-31T19:11:20.631Z,99106.28
2023-03-31T19:13:49.486Z,99110.84
2023-03-31T19:16:19.215Z,99105.66
2023-03-31T19:18:47.692Z,99126.69
2023-03-31T19:21:15.937Z,99105.03
2023-03-31T19:23:44.480Z,99097.59
2023-03-31T19:26:14.622Z,99113.75
2023-03-31T19:28:43.404Z,99116.88
2023-03-31T19:31:12.257Z,99113.66
2023-03-31T19:33:42.219Z,99110.44
2023-03-31T19:36:11.245Z,99103.78
2023-03-31T19:38:39.550Z,99095.31
2023-03-31T19:41:08.759Z,99111.91
2023-03-31T19:43:36.952Z,99116.50
2023-03-31T19:46:05.243Z,99125.28
2023-03-31T19:48:34.346Z,99120.28
2023-03-31T19:51:05.773Z,99123.06
2023-03-31T19:53:37.645Z,99132.00
2023-03-31T19:56:09.901Z,99130.47
2023-03-31T19:58:39.366Z,99139.28
2023-03-31T20:01:10.761Z,99128.25
2023-03-31T20:03:39.334Z,99145.00
2023-03-31T20:06:11.704Z,99133.94
2023-03-31T20:08:42.400Z,99133.34
2023-03-31T20:11:14.330Z,99127.47
2023-03-31T20:13:44.417Z,99127.78
2023-03-31T20:16:15.560Z,99128.94
2023-03-31T20:18:47.949Z,99128.41
2023-03-31T20:21:21.394Z,99122.53
2023-03-31T20:23:49.930Z,99136.72
2023-03-31T20:26:21.380Z,99129.03
2023-03-31T20:28:51.751Z,99132.53
2023-03-31T20:31:23.199Z,99137.78
2023-03-31T20:33:53.875Z,99135.94
2023-03-31T20:36:25.624Z,99139.34
2023-03-31T20:38:54.824Z,99140.97
2023-03-31T20:41:27.326Z,99153.09
2023-03-31T20:43:56.707Z,99139.88
2023-03-31T20:46:25.675Z,99140.59
2023-03-31T20:48:57.213Z,99133.50
2023-03-31T20:51:29.750Z,99131.81
2023-03-31T20:54:00.045Z,99124.84
2023-03-31T20:56:30.950Z,99130.94
2023-03-31T20:59:00.849Z,99126.56
2023-03-31T21:01:32.833Z,99133.50
2023-03-31T21:04:02.261Z,99139.59
2023-03-31T21:06:37.364Z,99144.84
2023-03-31T21:09:06.188Z,99134.44
2023-03-31T21:11:35.133Z,99140.59
2023-03-31T21:14:05.726Z,99138.91
2023-03-31T21:16:34.587Z,99143.22
2023-03-31T21:19:02.829Z,99144.84
2023-03-31T21:21:33.678Z,99147.41
2023-03-31T21:24:02.429Z,99147.25
2023-03-31T21:26:31.092Z,99151.56
2023-03-31T21:28:59.328Z,99145.38
2023-03-31T21:31:28.012Z,99148.94
2023-03-31T21:33:57.763Z,99149.78
2023-03-31T21:36:26.816Z,99149.78
2023-03-31T21:38:57.832Z,99160.25
2023-03-31T21:41:28.705Z,99157.44
2023-03-31T21:43:59.693Z,99152.78
2023-03-31T21:46:32.542Z,99156.03
2023-03-31T21:49:01.293Z,99144.59
2023-03-31T21:51:29.986Z,99140.13
2023-03-31T21:53:59.665Z,99144.28
2023-03-31T21:56:32.137Z,99147.69
2023-03-31T21:59:01.356Z,99137.19
2023-03-31T22:01:29.969Z,99145.06
2023-03-31T22:03:59.102Z,99143.22
2023-03-31T22:06:27.616Z,99145.75
2023-03-31T22:08:56.204Z,99151.78
2023-03-31T22:11:26.704Z,99148.16
2023-03-31T22:13:55.303Z,99147.22
2023-03-31T22:16:24.265Z,99147.22
2023-03-31T22:18:53.874Z,99144.38
2023-03-31T22:21:25.601Z,99152.00
2023-03-31T22:23:55.080Z,99141.34
2023-03-31T22:26:26.008Z,99134.03
2023-03-31T22:28:54.687Z,99141.03
2023-03-31T22:31:23.836Z,99151.53
2023-03-31T22:33:53.170Z,99145.38
2023-03-31T22:36:21.797Z,99141.72
2023-03-31T22:38:50.392Z,99146.09
2023-03-31T22:41:18.628Z,99150.50
2023-03-31T22:43:48.178Z,99144.53
2023-03-31T22:46:16.980Z,99149.84
2023-03-31T22:48:48.882Z,99141.13
2023-03-31T22:51:17.470Z,99150.78
2023-03-31T22:53:51.560Z,99141.97
2023-03-31T22:56:21.003Z,99144.41
2023-03-31T22:58:51.215Z,99141.72
2023-03-31T23:01:21.891Z,99167.09
2023-03-31T23:03:50.764Z,99162.81
2023-03-31T23:06:19.352Z,99166.25
2023-03-31T23:08:49.431Z,99161.69
2023-03-31T23:11:18.590Z,99175.69
2023-03-31T23:13:47.656Z,99176.53
2023-03-31T23:16:21.180Z,99156.38
2023-03-31T23:18:49.997Z,99164.41
2023-03-31T23:21:21.555Z,99189.00
2023-03-31T23:23:53.660Z,99182.84
2023-03-31T23:26:23.778Z,99171.50
2023-03-31T23:28:53.397Z,99183.00
2023-03-31T23:31:25.631Z,99168.16
2023-03-31T23:33:54.553Z,99159.38
2023-03-31T23:36:23.922Z,99178.66
2023-03-31T23:38:54.360Z,99182.84
2023-03-31T23:41:23.963Z,99160.19
2023-03-31T23:43:52.736Z,99149.66
2023-03-31T23:46:24.252Z,99146.97
2023-03-31T23:48:52.947Z,99166.38
2023-03-31T23:51:21.601Z,99166.38
2023-03-31T23:53:50.161Z,99158.47
2023-03-31T23:56:18.429Z,99159.22
2023-03-31T23:58:47.115Z,99149.78
